Terminal Aerodrome Forecast
Issued by NWS

Home | Current Version | Previous Version | Text Only | Print | Product List | Glossary On
Versions: 1 2 3 4 5 6 7 8 9 10 11 12 13 14 15 16
720
FTUS41 KPHI 062325
TAFPNE
TAF
KPNE 062325Z 0700/0724 23003KT P6SM BKN250
     FM070300 VRB02KT P6SM SCT250
     FM071400 36004KT P6SM SKC
     FM072000 05006KT P6SM SCT200=

USA.gov is the U.S. government's official web portal to all federal, state and local government web resources and services.